createdAt,value
2024-05-09T00:01:18.003Z,2.20
2024-05-09T00:03:48.345Z,2.00
2024-05-09T00:06:18.572Z,2.27
2024-05-09T00:08:48.823Z,0.60
2024-05-09T00:11:20.571Z,2.80
2024-05-09T00:13:53.915Z,1.70
2024-05-09T00:16:24.169Z,0.70
2024-05-09T00:18:54.379Z,2.90
2024-05-09T00:21:24.614Z,0.83
2024-05-09T00:23:54.787Z,1.27
2024-05-09T00:26:24.990Z,0.60
2024-05-09T00:28:57.847Z,1.00
2024-05-09T00:31:28.469Z,0.60
2024-05-09T00:33:58.720Z,1.00
2024-05-09T00:36:28.914Z,0.53
2024-05-09T00:38:58.997Z,0.60
2024-05-09T00:41:29.285Z,1.50
2024-05-09T00:44:03.101Z,1.97
2024-05-09T00:46:33.255Z,1.37
2024-05-09T00:49:05.320Z,1.67
2024-05-09T00:51:35.511Z,0.90
2024-05-09T00:54:05.784Z,2.27
2024-05-09T00:56:36.522Z,0.97
2024-05-09T00:59:09.817Z,1.17
2024-05-09T01:01:40.108Z,0.90
2024-05-09T01:04:11.518Z,0.60
2024-05-09T01:06:41.894Z,2.20
2024-05-09T01:09:12.285Z,0.60
2024-05-09T01:12:13.658Z,0.90
2024-05-09T01:14:46.596Z,0.70
2024-05-09T01:17:17.151Z,0.67
2024-05-09T01:19:47.431Z,0.60
2024-05-09T01:22:17.625Z,0.60
2024-05-09T01:24:52.017Z,1.73
2024-05-09T01:27:22.235Z,1.47
2024-05-09T01:29:52.411Z,1.50
2024-05-09T01:32:22.656Z,0.80
2024-05-09T01:34:52.841Z,0.70
2024-05-09T01:37:22.994Z,1.17
2024-05-09T01:39:55.861Z,0.50
2024-05-09T01:42:26.242Z,0.60
2024-05-09T01:44:56.323Z,2.70
2024-05-09T01:47:26.764Z,0.60
2024-05-09T01:49:57.430Z,0.70
2024-05-09T01:52:27.548Z,1.77
2024-05-09T01:55:03.501Z,0.70
2024-05-09T01:57:35.893Z,1.20
2024-05-09T02:00:07.884Z,0.80
2024-05-09T02:02:38.278Z,1.30
2024-05-09T02:05:09.011Z,0.83
2024-05-09T02:07:39.351Z,0.60
2024-05-09T02:10:20.122Z,0.67
2024-05-09T02:12:53.532Z,0.67
2024-05-09T02:15:23.736Z,0.70
2024-05-09T02:17:54.083Z,1.73
2024-05-09T02:20:33.459Z,0.90
2024-05-09T02:23:07.512Z,1.00
2024-05-09T02:25:40.319Z,0.60
2024-05-09T02:28:10.731Z,0.60
2024-05-09T02:30:42.292Z,0.60
2024-05-09T02:33:14.431Z,0.60
2024-05-09T02:35:45.078Z,0.70
2024-05-09T02:38:13.442Z,1.90
2024-05-09T02:40:46.535Z,0.70
2024-05-09T02:43:16.648Z,0.60
2024-05-09T02:45:44.166Z,1.97
2024-05-09T02:48:14.714Z,1.93
2024-05-09T02:50:44.358Z,1.97
2024-05-09T02:53:15.146Z,1.33
2024-05-09T02:55:45.406Z,1.03
2024-05-09T02:58:15.750Z,0.70
2024-05-09T03:00:43.523Z,0.80
2024-05-09T03:03:15.546Z,0.80
2024-05-09T03:05:43.819Z,1.33
2024-05-09T03:08:14.472Z,0.60
2024-05-09T03:10:42.681Z,0.70
2024-05-09T03:13:16.441Z,0.70
2024-05-09T03:15:44.589Z,0.80
2024-05-09T03:18:15.215Z,1.03
2024-05-09T03:20:44.181Z,0.70
2024-05-09T03:23:14.632Z,0.70
2024-05-09T03:25:42.107Z,0.70
2024-05-09T03:28:12.282Z,0.60
2024-05-09T03:30:43.356Z,1.33
2024-05-09T03:33:15.503Z,0.67
2024-05-09T03:35:43.827Z,1.00
2024-05-09T03:38:14.357Z,1.40
2024-05-09T03:40:48.040Z,0.80
2024-05-09T03:43:18.796Z,0.70
2024-05-09T03:45:49.477Z,1.20
2024-05-09T03:48:19.901Z,0.70
2024-05-09T03:50:48.091Z,0.83
2024-05-09T03:53:18.716Z,1.00
2024-05-09T03:55:46.386Z,0.70
2024-05-09T03:58:16.504Z,1.37
2024-05-09T04:00:44.440Z,0.70
2024-05-09T04:03:17.490Z,0.70
2024-05-09T04:05:45.264Z,1.97
2024-05-09T04:08:15.900Z,0.70
2024-05-09T04:10:43.766Z,2.03
2024-05-09T04:13:13.925Z,1.23
2024-05-09T04:15:41.470Z,2.83
2024-05-09T04:18:12.784Z,0.90
2024-05-09T04:20:43.014Z,1.27
2024-05-09T04:23:15.264Z,1.00
2024-05-09T04:25:43.365Z,1.27
2024-05-09T04:28:13.522Z,1.20
2024-05-09T04:30:42.005Z,1.07
2024-05-09T04:33:14.302Z,0.70
2024-05-09T04:35:45.674Z,1.03
2024-05-09T04:38:16.405Z,1.00
2024-05-09T04:40:44.186Z,1.00
2024-05-09T04:43:19.099Z,1.23
2024-05-09T04:45:46.747Z,0.80
2024-05-09T04:48:17.223Z,0.60
2024-05-09T04:50:47.534Z,0.70
2024-05-09T04:53:21.807Z,0.70
2024-05-09T04:55:49.394Z,0.97
2024-05-09T04:58:19.573Z,0.70
2024-05-09T05:00:47.201Z,0.70
2024-05-09T05:03:18.016Z,1.20
2024-05-09T05:05:48.373Z,2.30
2024-05-09T05:08:19.507Z,1.00
2024-05-09T05:10:48.433Z,0.60
2024-05-09T05:13:20.757Z,1.47
2024-05-09T05:15:49.658Z,1.67
2024-05-09T05:18:20.116Z,2.90
2024-05-09T05:20:50.658Z,2.73
2024-05-09T05:23:23.259Z,1.77
2024-05-09T05:25:52.492Z,1.80
2024-05-09T05:28:23.245Z,0.80
2024-05-09T05:30:50.952Z,0.60
2024-05-09T05:33:22.593Z,1.00
2024-05-09T05:35:53.222Z,0.60
2024-05-09T05:38:27.250Z,0.60
2024-05-09T05:40:55.961Z,0.60
2024-05-09T05:43:26.272Z,0.60
2024-05-09T05:45:53.832Z,0.53
2024-05-09T05:48:24.175Z,1.37
2024-05-09T05:50:54.419Z,0.50
2024-05-09T05:53:24.594Z,0.70
2024-05-09T05:55:52.288Z,1.80
2024-05-09T05:58:22.849Z,1.70
2024-05-09T06:00:53.669Z,1.20
2024-05-09T06:03:23.936Z,0.90
2024-05-09T06:05:54.112Z,2.13
2024-05-09T06:08:27.116Z,0.60
2024-05-09T06:10:56.459Z,0.60
2024-05-09T06:13:26.673Z,0.50
2024-05-09T06:15:54.647Z,3.30
2024-05-09T06:18:25.064Z,3.07
2024-05-09T06:20:55.430Z,1.37
2024-05-09T06:23:25.540Z,2.10
2024-05-09T06:25:55.726Z,3.23
2024-05-09T06:28:25.821Z,9.87
2024-05-09T06:30:53.294Z,14.63
2024-05-09T06:33:23.601Z,11.03
2024-05-09T06:35:51.227Z,8.03
2024-05-09T06:38:24.062Z,13.73
2024-05-09T06:40:51.757Z,14.77
2024-05-09T06:43:21.951Z,13.70
2024-05-09T06:45:50.213Z,10.03
2024-05-09T06:48:22.067Z,11.23
2024-05-09T06:50:50.397Z,12.80
2024-05-09T06:53:21.063Z,15.77
2024-05-09T06:55:51.264Z,8.50
2024-05-09T06:58:24.552Z,12.20
2024-05-09T07:00:52.167Z,11.93
2024-05-09T07:03:22.582Z,5.57
2024-05-09T07:05:50.257Z,6.70
2024-05-09T07:08:20.622Z,13.30
2024-05-09T07:10:48.305Z,1.17
2024-05-09T07:13:21.129Z,3.87
2024-05-09T07:15:48.648Z,11.00
2024-05-09T07:18:20.368Z,4.17
2024-05-09T07:20:49.458Z,2.00
2024-05-09T07:23:20.701Z,11.37
2024-05-09T07:25:48.349Z,5.07
2024-05-09T07:28:22.226Z,11.17
2024-05-09T07:30:49.683Z,1.83
2024-05-09T07:33:21.831Z,0.53
2024-05-09T07:35:50.736Z,0.80
2024-05-09T07:38:21.093Z,11.20
2024-05-09T07:40:48.750Z,8.87
2024-05-09T07:43:21.671Z,4.30
2024-05-09T07:45:53.649Z,4.67
2024-05-09T07:50:00.227Z,4.13
2024-05-09T07:53:51.401Z,1.27
2024-05-09T07:56:23.182Z,8.63
2024-05-09T07:58:56.888Z,8.53
2024-05-09T08:01:26.540Z,4.60
2024-05-09T08:03:57.289Z,1.17
2024-05-09T08:06:25.533Z,2.63
2024-05-09T08:08:56.058Z,6.07
2024-05-09T08:11:24.459Z,2.43
2024-05-09T08:13:57.351Z,4.30
2024-05-09T08:16:25.105Z,3.17
2024-05-09T08:18:55.448Z,5.57
2024-05-09T08:21:23.135Z,5.03
2024-05-09T08:23:53.388Z,3.80
2024-05-09T08:26:20.978Z,5.23
2024-05-09T08:28:51.070Z,8.10
2024-05-09T08:31:21.291Z,3.80
2024-05-09T08:33:51.788Z,6.13
2024-05-09T08:36:20.136Z,7.97
2024-05-09T08:38:50.224Z,6.00
2024-05-09T08:41:20.498Z,11.03
2024-05-09T08:43:50.835Z,3.60
2024-05-09T08:46:21.244Z,4.50
2024-05-09T08:48:53.299Z,5.13
2024-05-09T08:51:21.023Z,7.20
2024-05-09T08:53:51.112Z,4.40
2024-05-09T08:56:20.151Z,7.83
2024-05-09T08:58:52.808Z,3.90
2024-05-09T09:01:23.415Z,14.13
2024-05-09T09:03:55.684Z,1.37
2024-05-09T09:06:23.558Z,13.27
2024-05-09T09:08:54.000Z,12.90
2024-05-09T09:11:21.552Z,4.83
2024-05-09T09:13:52.366Z,5.90
2024-05-09T09:16:19.982Z,7.60
2024-05-09T09:18:53.316Z,6.10
2024-05-09T09:21:20.979Z,4.93
2024-05-09T09:23:51.216Z,7.60
2024-05-09T09:26:18.793Z,7.37
2024-05-09T09:28:48.923Z,6.53
2024-05-09T09:31:18.850Z,4.70
2024-05-09T09:33:49.814Z,6.40
2024-05-09T09:36:20.644Z,5.93
2024-05-09T09:38:51.913Z,6.53
2024-05-09T09:41:20.287Z,10.53
2024-05-09T09:43:51.299Z,7.33
2024-05-09T09:46:20.044Z,5.13
2024-05-09T09:48:50.740Z,9.47
2024-05-09T09:51:21.903Z,3.50
2024-05-09T09:53:52.529Z,5.03
2024-05-09T09:56:21.552Z,3.93
2024-05-09T09:58:52.337Z,9.50
2024-05-09T10:01:20.087Z,5.93
2024-05-09T10:03:50.462Z,7.73
2024-05-09T10:06:20.922Z,5.90
2024-05-09T10:08:51.654Z,6.13
2024-05-09T10:11:20.539Z,7.13
2024-05-09T10:13:50.829Z,6.07
2024-05-09T10:16:22.310Z,3.03
2024-05-09T10:18:53.005Z,4.57
2024-05-09T10:21:23.357Z,2.83
2024-05-09T10:24:00.251Z,6.50
2024-05-09T10:26:32.058Z,3.07
2024-05-09T10:29:03.347Z,6.13
2024-05-09T10:31:31.242Z,2.93
2024-05-09T10:34:05.443Z,3.87
2024-05-09T10:36:42.783Z,7.10
2024-05-09T10:39:13.508Z,5.17
2024-05-09T10:41:41.010Z,6.87
2024-05-09T10:44:14.278Z,7.67
2024-05-09T10:46:42.033Z,7.50
2024-05-09T10:49:12.243Z,12.80
2024-05-09T10:51:42.574Z,8.07
2024-05-09T10:54:12.696Z,7.67
2024-05-09T10:56:42.836Z,3.70
2024-05-09T10:59:10.405Z,5.97
2024-05-09T11:01:40.725Z,8.07
2024-05-09T11:04:09.377Z,7.47
2024-05-09T11:06:39.704Z,5.17
2024-05-09T11:09:09.955Z,5.53
2024-05-09T11:11:40.197Z,5.03
2024-05-09T11:14:12.735Z,7.40
2024-05-09T11:16:42.906Z,5.60
2024-05-09T11:19:12.944Z,3.53
2024-05-09T11:21:43.239Z,2.83
2024-05-09T11:24:13.450Z,5.60
2024-05-09T11:26:43.614Z,7.23
2024-05-09T11:29:11.128Z,5.13
2024-05-09T11:31:48.928Z,3.33
2024-05-09T11:34:16.744Z,8.13
2024-05-09T11:36:47.057Z,1.70
2024-05-09T11:39:17.275Z,3.70
2024-05-09T11:41:47.382Z,5.60
2024-05-09T11:44:14.823Z,9.90
2024-05-09T11:46:46.188Z,4.03
2024-05-09T11:49:13.867Z,5.17
2024-05-09T11:51:44.103Z,4.63
2024-05-09T11:54:11.671Z,9.77
2024-05-09T11:56:44.447Z,4.40
2024-05-09T11:59:12.164Z,7.50
2024-05-09T12:01:42.426Z,8.87
2024-05-09T12:04:10.132Z,4.83
2024-05-09T12:06:40.403Z,5.13
2024-05-09T12:09:07.922Z,7.47
2024-05-09T12:11:38.065Z,7.50
2024-05-09T12:14:08.231Z,4.53
2024-05-09T12:16:38.550Z,8.23
2024-05-09T12:19:06.341Z,6.17
2024-05-09T12:21:36.553Z,8.43
2024-05-09T12:24:04.233Z,6.73
2024-05-09T12:26:34.391Z,9.97
2024-05-09T12:29:01.925Z,7.60
2024-05-09T12:31:34.790Z,13.97
2024-05-09T12:34:02.553Z,3.50
2024-05-09T12:36:33.119Z,4.27
2024-05-09T12:39:01.014Z,10.97
2024-05-09T12:41:31.524Z,5.50
2024-05-09T12:43:59.143Z,5.17
2024-05-09T12:46:29.490Z,8.97
2024-05-09T12:49:00.275Z,4.37
2024-05-09T12:51:31.136Z,8.37
2024-05-09T12:53:58.813Z,8.43
2024-05-09T12:56:28.946Z,8.83
2024-05-09T12:58:56.501Z,14.10
2024-05-09T13:01:26.829Z,7.60
2024-05-09T13:03:54.726Z,10.50
2024-05-09T13:06:27.642Z,10.50
2024-05-09T13:08:55.193Z,8.97
2024-05-09T13:11:25.400Z,5.17
2024-05-09T13:13:52.927Z,8.30
2024-05-09T13:16:23.332Z,6.43
2024-05-09T13:18:51.153Z,5.37
2024-05-09T13:21:21.286Z,6.77
2024-05-09T13:23:51.436Z,3.97
2024-05-09T13:26:21.496Z,4.77
2024-05-09T13:28:48.994Z,5.10
2024-05-09T13:31:19.875Z,6.17
2024-05-09T13:33:47.830Z,5.23
2024-05-09T13:36:18.186Z,5.57
2024-05-09T13:38:45.740Z,10.23
2024-05-09T13:41:18.542Z,5.20
2024-05-09T13:43:46.127Z,2.80
2024-05-09T13:46:16.425Z,4.90
2024-05-09T13:48:44.099Z,4.40
2024-05-09T13:51:14.466Z,2.13
2024-05-09T13:53:41.998Z,2.27
2024-05-09T13:56:12.813Z,4.63
2024-05-09T13:58:43.953Z,2.30
2024-05-09T14:01:14.153Z,5.63
2024-05-09T14:03:41.949Z,2.37
2024-05-09T14:06:13.201Z,4.23
2024-05-09T14:08:40.934Z,4.27
2024-05-09T14:11:11.046Z,2.77
2024-05-09T14:13:38.604Z,4.60
2024-05-09T14:16:11.811Z,1.90
2024-05-09T14:18:39.554Z,4.70
2024-05-09T14:21:09.792Z,7.90
2024-05-09T14:23:37.425Z,2.40
2024-05-09T14:26:08.166Z,3.60
2024-05-09T14:28:35.799Z,4.17
2024-05-09T14:31:06.010Z,5.53
2024-05-09T14:33:37.149Z,5.17
2024-05-09T14:36:07.540Z,6.17
2024-05-09T14:38:35.197Z,9.20
2024-05-09T14:41:05.746Z,7.13
2024-05-09T14:43:33.366Z,3.97
2024-05-09T14:46:03.576Z,4.43
2024-05-09T14:48:31.544Z,5.73
2024-05-09T14:51:04.357Z,3.70
2024-05-09T14:53:31.921Z,4.13
2024-05-09T14:56:02.137Z,4.50
2024-05-09T14:58:30.001Z,1.53
2024-05-09T15:01:00.414Z,4.10
2024-05-09T15:03:28.122Z,4.67
2024-05-09T15:05:58.648Z,4.23
2024-05-09T15:08:28.825Z,4.90
2024-05-09T15:10:59.002Z,5.77
2024-05-09T15:13:26.810Z,8.27
2024-05-09T15:15:57.264Z,3.63
2024-05-09T15:18:24.849Z,4.07
2024-05-09T15:20:55.103Z,3.83
2024-05-09T15:23:22.682Z,5.00
2024-05-09T15:25:55.459Z,4.30
2024-05-09T15:28:23.483Z,5.70
2024-05-09T15:30:53.789Z,8.13
2024-05-09T15:33:21.449Z,2.00
2024-05-09T15:35:51.652Z,3.33
2024-05-09T15:38:19.473Z,3.87
2024-05-09T15:40:49.811Z,3.67
2024-05-09T15:43:20.038Z,2.23
2024-05-09T15:45:50.294Z,6.23
2024-05-09T15:48:18.054Z,4.43
2024-05-09T15:50:48.357Z,7.87
2024-05-09T15:53:15.955Z,3.17
2024-05-09T15:55:46.429Z,2.67
2024-05-09T15:58:14.353Z,4.73
2024-05-09T16:00:49.672Z,2.47
2024-05-09T16:03:21.326Z,4.03
2024-05-09T16:05:51.983Z,1.70
2024-05-09T16:08:19.811Z,2.20
2024-05-09T16:10:50.318Z,3.37
2024-05-09T16:13:19.706Z,5.33
2024-05-09T16:15:52.956Z,4.40
2024-05-09T16:18:21.529Z,2.17
2024-05-09T16:20:59.426Z,1.70
2024-05-09T16:23:29.561Z,2.20
2024-05-09T16:25:57.423Z,3.67
2024-05-09T16:28:28.483Z,1.90
2024-05-09T16:31:01.398Z,2.73
2024-05-09T16:33:31.747Z,2.47
2024-05-09T16:35:59.450Z,2.70
2024-05-09T16:38:29.569Z,3.57
2024-05-09T16:40:57.142Z,3.77
2024-05-09T16:43:27.343Z,2.67
2024-05-09T16:45:54.904Z,2.77
2024-05-09T16:48:27.714Z,2.93
2024-05-09T16:50:55.217Z,0.90
2024-05-09T16:53:25.729Z,3.87
2024-05-09T16:55:53.217Z,1.43
2024-05-09T16:58:23.407Z,2.03
2024-05-09T17:00:51.412Z,1.77
2024-05-09T17:03:22.168Z,2.93
2024-05-09T17:05:52.412Z,1.50
2024-05-09T17:08:22.922Z,2.77
2024-05-09T17:10:50.715Z,2.77
2024-05-09T17:13:21.716Z,1.70
2024-05-09T17:15:52.335Z,1.43
2024-05-09T17:18:22.685Z,3.40
2024-05-09T17:20:55.513Z,1.87
2024-05-09T17:23:23.229Z,2.73
2024-05-09T17:25:53.366Z,1.33
2024-05-09T17:28:21.104Z,4.23
2024-05-09T17:30:51.521Z,2.47
2024-05-09T17:33:19.389Z,2.33
2024-05-09T17:35:50.764Z,0.70
2024-05-09T17:38:23.321Z,1.37
2024-05-09T17:40:54.587Z,3.23
2024-05-09T17:43:22.557Z,1.83
2024-05-09T17:45:53.003Z,3.93
2024-05-09T17:48:20.896Z,2.40
2024-05-09T17:50:51.524Z,2.73
2024-05-09T17:53:22.025Z,4.00
2024-05-09T17:55:53.928Z,2.00
2024-05-09T17:58:21.680Z,1.67
2024-05-09T18:00:52.194Z,1.73
2024-05-09T18:03:20.103Z,0.47
2024-05-09T18:05:50.428Z,2.33
2024-05-09T18:08:17.999Z,3.47
2024-05-09T18:10:52.146Z,0.30
2024-05-09T18:13:20.981Z,0.67
2024-05-09T18:15:51.363Z,2.67
2024-05-09T18:18:19.115Z,0.60
2024-05-09T18:20:49.379Z,0.87
2024-05-09T18:23:18.662Z,1.57
2024-05-09T18:25:54.629Z,1.17
2024-05-09T18:28:22.673Z,1.27
2024-05-09T18:30:53.240Z,0.40
2024-05-09T18:33:20.946Z,0.40
2024-05-09T18:35:51.107Z,1.33
2024-05-09T18:38:19.318Z,1.83
2024-05-09T18:40:52.203Z,0.50
2024-05-09T18:43:26.210Z,0.50
2024-05-09T18:46:01.598Z,0.90
2024-05-09T18:48:29.270Z,2.47
2024-05-09T18:50:59.799Z,0.40
2024-05-09T18:53:27.399Z,0.83
2024-05-09T18:56:00.383Z,1.77
2024-05-09T18:58:27.902Z,2.07
2024-05-09T19:01:00.815Z,2.13
2024-05-09T19:03:29.367Z,1.43
2024-05-09T19:05:59.767Z,2.20
2024-05-09T19:08:28.475Z,1.53
2024-05-09T19:11:01.925Z,0.87
2024-05-09T19:13:29.852Z,0.93
2024-05-09T19:16:00.312Z,1.67
2024-05-09T19:18:27.935Z,2.10
2024-05-09T19:20:58.928Z,3.60
2024-05-09T19:23:26.685Z,1.23
2024-05-09T19:25:56.928Z,0.80
2024-05-09T19:28:27.173Z,1.23
2024-05-09T19:30:57.459Z,3.27
2024-05-09T19:33:25.031Z,4.37
2024-05-09T19:35:55.192Z,2.00
2024-05-09T19:38:22.805Z,0.40
2024-05-09T19:40:53.172Z,0.40
2024-05-09T19:43:20.959Z,2.40
2024-05-09T19:48:45.662Z,2.13
2024-05-09T19:51:15.941Z,1.77
2024-05-09T19:53:43.842Z,1.53
2024-05-09T19:56:13.986Z,1.53
2024-05-09T19:58:41.612Z,2.20
2024-05-09T20:01:14.507Z,0.40
2024-05-09T20:03:42.146Z,2.07
2024-05-09T20:06:12.443Z,1.30
2024-05-09T20:08:40.151Z,2.77
2024-05-09T20:11:10.351Z,0.30
2024-05-09T20:13:37.908Z,3.27
2024-05-09T20:16:08.737Z,0.40
2024-05-09T20:18:39.056Z,1.27
2024-05-09T20:21:09.480Z,0.90
2024-05-09T20:23:37.011Z,1.47
2024-05-09T20:26:07.535Z,3.13
2024-05-09T20:28:35.759Z,1.17
2024-05-09T20:31:06.494Z,0.73
2024-05-09T20:33:34.096Z,2.20
2024-05-09T20:36:07.167Z,0.73
2024-05-09T20:38:34.658Z,2.50
2024-05-09T20:41:05.345Z,2.50
2024-05-09T20:43:32.950Z,0.40
2024-05-09T20:46:03.229Z,0.60
2024-05-09T20:48:30.986Z,1.23
2024-05-09T20:51:01.207Z,0.60
2024-05-09T20:53:31.320Z,0.40
2024-05-09T20:56:01.456Z,1.60
2024-05-09T20:58:30.644Z,0.87
2024-05-09T21:01:00.922Z,0.80
2024-05-09T21:03:28.726Z,2.03
2024-05-09T21:05:59.134Z,0.60
2024-05-09T21:08:27.079Z,0.70
2024-05-09T21:10:59.938Z,0.40
2024-05-09T21:13:27.760Z,2.40
2024-05-09T21:15:58.267Z,1.73
2024-05-09T21:18:25.868Z,0.50
2024-05-09T21:20:55.997Z,0.40
2024-05-09T21:23:23.495Z,0.67
2024-05-09T21:25:53.648Z,0.93
2024-05-09T21:28:24.006Z,3.97
2024-05-09T21:30:54.245Z,4.37
2024-05-09T21:33:22.053Z,1.07
2024-05-09T21:35:52.419Z,3.77
2024-05-09T21:38:19.904Z,1.30
2024-05-09T21:40:50.128Z,1.10
2024-05-09T21:43:17.939Z,0.60
2024-05-09T21:45:50.854Z,2.43
2024-05-09T21:48:18.519Z,2.23
2024-05-09T21:50:48.781Z,0.90
2024-05-09T21:53:16.323Z,2.17
2024-05-09T21:55:46.438Z,1.00
2024-05-09T21:58:14.804Z,2.57
2024-05-09T22:00:46.385Z,2.63
2024-05-09T22:03:21.573Z,1.40
2024-05-09T22:05:49.177Z,1.57
2024-05-09T22:08:19.318Z,2.93
2024-05-09T22:10:46.853Z,0.97
2024-05-09T22:13:19.177Z,1.60
2024-05-09T22:15:46.815Z,0.80
2024-05-09T22:18:19.701Z,0.83
2024-05-09T22:20:47.355Z,1.00
2024-05-09T22:23:18.268Z,0.50
2024-05-09T22:25:45.791Z,4.30
2024-05-09T22:28:16.662Z,1.00
2024-05-09T22:30:46.223Z,1.07
2024-05-09T22:33:19.731Z,1.57
2024-05-09T22:35:48.110Z,1.43
2024-05-09T22:38:18.307Z,2.37
2024-05-09T22:40:49.032Z,1.67
2024-05-09T22:43:25.104Z,2.93
2024-05-09T22:45:54.383Z,0.80
2024-05-09T22:48:27.684Z,2.20
2024-05-09T22:50:55.480Z,2.30
2024-05-09T22:53:26.455Z,1.33
2024-05-09T22:55:55.065Z,1.43
2024-05-09T22:58:26.023Z,1.43
2024-05-09T23:00:53.923Z,2.77
2024-05-09T23:03:27.251Z,3.20
2024-05-09T23:05:54.839Z,1.33
2024-05-09T23:08:24.996Z,0.80
2024-05-09T23:10:52.636Z,0.60
2024-05-09T23:13:22.919Z,0.50
2024-05-09T23:15:50.498Z,0.60
2024-05-09T23:18:20.834Z,1.40
2024-05-09T23:20:51.871Z,3.30
2024-05-09T23:23:22.087Z,1.10
2024-05-09T23:25:50.111Z,0.57
2024-05-09T23:28:20.593Z,1.03
2024-05-09T23:30:51.148Z,2.83
2024-05-09T23:33:18.840Z,2.83
2024-05-09T23:35:49.098Z,0.70
2024-05-09T23:38:22.483Z,1.00
2024-05-09T23:40:57.017Z,1.33
2024-05-09T23:43:24.723Z,2.30
2024-05-09T23:45:55.014Z,0.80
2024-05-09T23:48:22.688Z,5.50
2024-05-09T23:50:52.957Z,3.37
2024-05-09T23:53:23.147Z,4.33
2024-05-09T23:55:53.216Z,4.23
2024-05-09T23:58:21.030Z,5.07
